Time;durP1;ratioP1;P1;durP2;ratioP2;P2;SDS_P1;SDS_P2;PMS_P1;PMS_P2;Temp;Humidity;BMP_temperature;BMP_pressure;BME280_temperature;BME280_humidity;BME280_pressure;Samples;Min_cycle;Max_cycle;Signal;HPM_P1;HPM_P2
2023/07/10 00:01:29;;;;;;;8.30;5.53;;;;;;;25.51;nan;99658.53;4884096;29;20520;-77
2023/07/10 00:03:55;;;;;;;7.37;4.33;;;;;;;25.43;nan;99658.66;4873902;29;21018;-77
2023/07/10 00:06:21;;;;;;;6.10;5.40;;;;;;;25.44;nan;99636.97;4889446;29;20510;-77
2023/07/10 00:08:47;;;;;;;7.23;5.63;;;;;;;25.47;nan;99622.31;4888597;29;20211;-77
2023/07/10 00:11:17;;;;;;;6.20;4.97;;;;;;;25.49;nan;99602.25;4889170;29;20483;-77
2023/07/10 00:13:43;;;;;;;5.33;4.73;;;;;;;25.50;nan;99595.03;4888536;29;20505;-77
2023/07/10 00:16:14;;;;;;;8.20;5.07;;;;;;;25.48;nan;99605.13;4887589;29;21101;-77
2023/07/10 00:18:40;;;;;;;4.97;4.50;;;;;;;25.48;nan;99638.22;4888435;29;20276;-77
2023/07/10 00:21:05;;;;;;;6.30;4.70;;;;;;;25.46;nan;99677.09;4886873;29;20584;-77
2023/07/10 00:23:30;;;;;;;5.50;4.83;;;;;;;25.44;nan;99688.06;4887378;29;21132;-77
2023/07/10 00:25:56;;;;;;;6.23;4.67;;;;;;;25.44;nan;99679.16;4889263;29;20198;-77
2023/07/10 00:28:21;;;;;;;6.03;4.13;;;;;;;25.44;nan;99679.16;4887477;29;20209;-77
2023/07/10 00:30:48;;;;;;;6.97;5.20;;;;;;;25.41;nan;99703.72;4889462;29;20218;-77
2023/07/10 00:33:16;;;;;;;6.30;5.10;;;;;;;25.35;nan;99703.47;4888053;29;20215;-77
2023/07/10 00:35:43;;;;;;;5.30;4.00;;;;;;;25.32;nan;99693.09;4888689;29;20597;-77
2023/07/10 00:38:19;;;;;;;5.13;4.00;;;;;;;25.34;nan;99701.81;4887073;29;20471;-78
2023/07/10 00:40:47;;;;;;;6.63;5.00;;;;;;;25.37;nan;99714.06;4887629;29;20510;-77
2023/07/10 00:43:36;;;;;;;5.60;4.73;;;;;;;25.43;nan;99723.22;4889681;29;20557;-77
2023/07/10 00:46:15;;;;;;;7.10;6.40;;;;;;;25.44;nan;99727.56;4888004;29;20487;-77
2023/07/10 00:48:52;;;;;;;4.93;4.40;;;;;;;25.44;nan;99723.03;4874817;29;20475;-77
2023/07/10 00:51:24;;;;;;;8.00;4.83;;;;;;;25.39;nan;99715.53;4888710;29;20569;-77
2023/07/10 00:53:53;;;;;;;4.80;4.40;;;;;;;25.35;nan;99714.22;4870667;29;20506;-77
2023/07/10 00:56:19;;;;;;;6.13;4.47;;;;;;;25.30;nan;99719.38;4889947;29;20470;-77
2023/07/10 00:58:48;;;;;;;6.60;4.73;;;;;;;25.20;nan;99710.78;4889269;29;20474;-77
2023/07/10 01:01:21;;;;;;;5.50;4.73;;;;;;;25.12;nan;99713.56;4891667;29;20484;-77
2023/07/10 01:03:50;;;;;;;4.73;4.10;;;;;;;25.10;nan;99713.72;4890125;29;21020;-77
2023/07/10 01:06:18;;;;;;;5.72;5.22;;;;;;;25.09;nan;99719.31;4895266;29;20448;-77
2023/07/10 01:08:49;;;;;;;6.33;5.00;;;;;;;25.12;nan;99729.69;4893543;29;20210;-77
2023/07/10 01:11:17;;;;;;;5.17;4.23;;;;;;;25.18;nan;99726.25;4890710;29;20496;-77
2023/07/10 01:13:46;;;;;;;4.70;3.97;;;;;;;25.24;nan;99738.94;4888890;29;20492;-77
2023/07/10 01:16:11;;;;;;;4.60;4.20;;;;;;;25.28;nan;99745.59;4887220;29;21001;-76
2023/07/10 01:18:39;;;;;;;5.40;4.53;;;;;;;25.34;nan;99752.91;4890602;29;20471;-78
2023/07/10 01:21:19;;;;;;;5.20;4.70;;;;;;;25.36;nan;99742.81;4891668;29;20217;-78
2023/07/10 01:23:45;;;;;;;4.90;4.50;;;;;;;25.35;nan;99718.78;4888027;29;20730;-77
2023/07/10 01:26:10;;;;;;;6.03;4.50;;;;;;;25.36;nan;99717.78;4886526;29;20702;-77
2023/07/10 01:28:36;;;;;;;7.00;4.77;;;;;;;25.39;nan;99723.59;4888727;29;20473;-77
2023/07/10 01:31:10;;;;;;;3.90;3.30;;;;;;;25.43;nan;99724.03;4887431;29;20306;-78
2023/07/10 01:33:42;;;;;;;5.10;4.60;;;;;;;25.41;nan;99723.41;4889115;29;20227;-77
2023/07/10 01:36:11;;;;;;;6.30;4.47;;;;;;;25.35;nan;99729.53;4886764;29;20975;-77
2023/07/10 01:38:43;;;;;;;6.10;5.07;;;;;;;25.21;nan;99747.38;4888700;29;20234;-77
2023/07/10 01:41:39;;;;;;;4.77;4.37;;;;;;;25.04;nan;99751.28;4891017;29;20544;-77
2023/07/10 01:44:22;;;;;;;6.27;4.97;;;;;;;24.95;nan;99750.53;4888862;29;20509;-76
2023/07/10 01:46:49;;;;;;;7.20;4.10;;;;;;;24.94;nan;99760.47;4878268;29;20503;-76
2023/07/10 01:49:17;;;;;;;5.50;4.63;;;;;;;24.93;nan;99777.59;4876520;29;21270;-76
2023/07/10 01:51:43;;;;;;;6.83;5.90;;;;;;;24.85;nan;99793.81;4876716;29;20489;-76
2023/07/10 01:54:15;;;;;;;5.40;4.60;;;;;;;24.81;nan;99795.19;4881465;29;21022;-76
2023/07/10 01:56:41;;;;;;;5.20;4.33;;;;;;;24.81;nan;99781.78;4880478;29;21052;-76
2023/07/10 01:59:07;;;;;;;8.47;3.93;;;;;;;24.83;nan;99768.16;4863491;29;20502;-76
2023/07/10 02:01:32;;;;;;;5.80;5.20;;;;;;;24.84;nan;99746.47;4867207;29;20486;-76
2023/07/10 02:03:58;;;;;;;5.73;4.33;;;;;;;24.86;nan;99730.19;4865520;29;20473;-76
2023/07/10 02:06:25;;;;;;;6.60;4.80;;;;;;;24.88;nan;99734.34;4875755;29;20466;-76
2023/07/10 02:08:51;;;;;;;5.30;4.80;;;;;;;24.91;nan;99739.34;4879838;29;20371;-76
2023/07/10 02:11:17;;;;;;;5.77;5.27;;;;;;;24.91;nan;99717.84;4866991;29;20572;-76
2023/07/10 02:13:43;;;;;;;8.03;5.70;;;;;;;24.82;nan;99716.28;4881922;29;20224;-76
2023/07/10 02:16:10;;;;;;;5.10;4.40;;;;;;;24.78;nan;99746.41;4883344;29;20232;-76
2023/07/10 02:18:36;;;;;;;3.97;3.67;;;;;;;24.80;nan;99764.00;4884331;29;20230;-76
2023/07/10 02:21:01;;;;;;;5.20;4.40;;;;;;;24.85;nan;99776.88;4880873;29;20475;-77
2023/07/10 02:23:29;;;;;;;4.30;3.90;;;;;;;24.89;nan;99776.31;4868182;29;20297;-77
2023/07/10 02:25:55;;;;;;;6.40;4.70;;;;;;;24.93;nan;99769.53;4883889;29;20592;-77
2023/07/10 02:28:22;;;;;;;6.77;4.77;;;;;;;24.97;nan;99766.47;4886401;29;20471;-76
2023/07/10 02:30:47;;;;;;;6.40;4.53;;;;;;;25.00;nan;99782.22;4881717;29;20467;-76
2023/07/10 02:33:12;;;;;;;10.93;5.60;;;;;;;24.97;nan;99809.47;4883268;29;20236;-76
2023/07/10 02:35:38;;;;;;;7.03;4.63;;;;;;;24.93;nan;99831.34;4882625;29;20436;-76
2023/07/10 02:38:04;;;;;;;7.90;4.87;;;;;;;24.90;nan;99834.41;4882204;29;20995;-76
2023/07/10 02:40:29;;;;;;;6.77;4.63;;;;;;;24.91;nan;99806.50;4882059;29;20229;-76
2023/07/10 02:42:55;;;;;;;6.83;5.23;;;;;;;24.93;nan;99782.97;4883026;29;20666;-76
2023/07/10 02:45:20;;;;;;;5.90;4.33;;;;;;;24.94;nan;99779.25;4882666;29;20213;-76
2023/07/10 02:47:45;;;;;;;4.70;4.20;;;;;;;24.97;nan;99782.59;4883175;29;20237;-76
2023/07/10 02:50:11;;;;;;;4.80;4.40;;;;;;;24.99;nan;99805.59;4868278;29;20783;-76
2023/07/10 02:52:36;;;;;;;6.00;3.80;;;;;;;24.98;nan;99824.56;4880130;29;20988;-76
2023/07/10 02:55:02;;;;;;;4.83;4.40;;;;;;;24.97;nan;99841.72;4871676;29;20225;-77
2023/07/10 02:57:28;;;;;;;8.80;4.80;;;;;;;24.98;nan;99852.31;4881220;29;20325;-76
2023/07/10 02:59:53;;;;;;;6.17;4.47;;;;;;;25.04;nan;99866.84;4888504;29;20488;-76
2023/07/10 03:02:19;;;;;;;5.10;4.60;;;;;;;25.06;nan;99859.41;4884715;29;20237;-76
2023/07/10 03:04:45;;;;;;;5.40;4.50;;;;;;;25.04;nan;99835.44;4885401;29;20209;-76
2023/07/10 03:07:10;;;;;;;4.90;4.40;;;;;;;25.04;nan;99810.41;4884298;29;20708;-76
2023/07/10 03:09:36;;;;;;;6.83;5.10;;;;;;;25.01;nan;99813.47;4884822;29;20243;-76
2023/07/10 03:12:04;;;;;;;5.97;5.40;;;;;;;25.00;nan;99830.59;4870159;29;20225;-77
2023/07/10 03:14:29;;;;;;;5.10;4.63;;;;;;;24.98;nan;99846.94;4882546;29;20484;-76
2023/07/10 03:16:55;;;;;;;8.87;5.03;;;;;;;24.94;nan;99838.38;4867131;29;20961;-77
2023/07/10 03:19:20;;;;;;;7.23;5.67;;;;;;;24.90;nan;99834.41;4884779;29;20223;-78
2023/07/10 03:21:46;;;;;;;9.60;6.40;;;;;;;24.84;nan;99845.88;4886952;29;20287;-78
2023/07/10 03:24:11;;;;;;;7.80;4.90;;;;;;;24.82;nan;99853.31;4888304;29;20214;-78
2023/07/10 03:26:36;;;;;;;5.53;4.77;;;;;;;24.80;nan;99844.59;4886192;29;20270;-78
2023/07/10 03:29:07;;;;;;;5.53;4.40;;;;;;;24.73;nan;99841.81;4887634;29;20567;-78
2023/07/10 03:31:33;;;;;;;6.50;5.23;;;;;;;24.62;nan;99850.31;4884562;29;20219;-78
2023/07/10 03:33:58;;;;;;;8.50;5.70;;;;;;;24.35;nan;99840.13;4885314;29;20848;-78
2023/07/10 03:36:24;;;;;;;8.33;6.17;;;;;;;24.04;nan;99849.94;4885899;29;20255;-78
2023/07/10 03:38:49;;;;;;;7.90;6.53;;;;;;;23.87;nan;99861.78;4870364;29;20596;-78
2023/07/10 03:41:15;;;;;;;6.33;5.57;;;;;;;23.80;nan;99836.69;4885851;29;20589;-78
2023/07/10 03:43:42;;;;;;;6.83;5.93;;;;;;;23.78;nan;99830.66;4885150;29;20476;-78
2023/07/10 03:46:07;;;;;;;6.77;6.07;;;;;;;23.81;nan;99819.56;4887720;29;20526;-77
2023/07/10 03:48:33;;;;;;;9.67;6.73;;;;;;;23.85;nan;99828.94;4886205;29;20226;-77
2023/07/10 03:50:58;;;;;;;9.77;6.40;;;;;;;23.90;nan;99839.97;4886106;29;20226;-77
2023/07/10 03:53:24;;;;;;;8.53;7.50;;;;;;;23.91;nan;99844.31;4886594;29;20239;-77
2023/07/10 03:55:52;;;;;;;7.47;5.90;;;;;;;23.90;nan;99861.44;4886280;29;20216;-77
2023/07/10 03:58:27;;;;;;;7.30;6.63;;;;;;;23.88;nan;99876.06;4883707;29;20236;-77
2023/07/10 04:00:55;;;;;;;6.33;5.67;;;;;;;23.84;nan;99894.31;4888057;29;20866;-77
2023/07/10 04:03:26;;;;;;;6.57;5.87;;;;;;;23.79;nan;99932.44;4885644;29;20466;-77
2023/07/10 04:05:54;;;;;;;9.18;7.20;;;;;;;23.70;nan;99968.28;4884236;29;20506;-77
2023/07/10 04:08:24;;;;;;;8.37;6.53;;;;;;;23.58;nan;99993.84;4882439;29;20244;-78
2023/07/10 04:10:51;;;;;;;11.07;6.37;;;;;;;23.47;nan;99996.88;4885259;29;20445;-77
2023/07/10 04:13:17;;;;;;;9.70;7.67;;;;;;;23.40;nan;99994.03;4883754;29;20530;-77
2023/07/10 04:16:00;;;;;;;7.63;6.80;;;;;;;23.34;nan;99975.97;4880229;29;20960;-77
2023/07/10 04:18:28;;;;;;;11.40;8.43;;;;;;;23.35;nan;99948.13;4880201;29;20280;-76
2023/07/10 04:20:53;;;;;;;9.93;8.50;;;;;;;23.36;nan;99925.72;4878464;29;20639;-76
2023/07/10 04:23:19;;;;;;;9.37;7.23;;;;;;;23.29;nan;99884.50;4877509;29;20567;-76
2023/07/10 04:25:45;;;;;;;11.97;8.93;;;;;;;23.13;nan;99855.91;4879650;29;20231;-76
2023/07/10 04:28:11;;;;;;;13.00;8.20;;;;;;;23.09;nan;99849.25;4881115;29;20244;-76
2023/07/10 04:30:36;;;;;;;9.17;8.20;;;;;;;23.03;nan;99845.38;4877436;29;21007;-76
2023/07/10 04:33:01;;;;;;;10.10;6.93;;;;;;;22.96;nan;99814.97;4880597;29;20212;-77
2023/07/10 04:35:27;;;;;;;9.23;7.37;;;;;;;22.90;nan;99821.81;4879484;29;20298;-76
2023/07/10 04:37:52;;;;;;;14.60;8.57;;;;;;;22.94;nan;99895.44;4877827;29;20698;-77
2023/07/10 04:40:18;;;;;;;11.53;7.70;;;;;;;22.96;nan;99944.38;4876635;29;20247;-76
2023/07/10 04:42:43;;;;;;;9.93;7.27;;;;;;;22.99;nan;99956.59;4876942;29;20228;-76
2023/07/10 04:45:09;;;;;;;11.43;7.93;;;;;;;23.03;nan;99941.00;4880959;29;20228;-76
2023/07/10 04:47:34;;;;;;;8.40;7.50;;;;;;;23.06;nan;99954.06;4879089;29;20297;-76
2023/07/10 04:50:00;;;;;;;10.00;8.03;;;;;;;23.10;nan;99953.56;4882059;29;20276;-76
2023/07/10 04:52:25;;;;;;;11.20;8.80;;;;;;;23.15;nan;99947.69;4880599;29;20299;-76
2023/07/10 04:54:51;;;;;;;12.87;8.30;;;;;;;23.14;nan;99929.94;4883756;29;20355;-76
2023/07/10 04:57:17;;;;;;;10.20;7.40;;;;;;;23.07;nan;99924.44;4884032;29;20244;-76
2023/07/10 04:59:44;;;;;;;9.07;8.17;;;;;;;23.09;nan;99937.66;4884602;29;20232;-76
2023/07/10 05:02:10;;;;;;;9.10;8.13;;;;;;;23.13;nan;99958.56;4884620;29;20492;-76
2023/07/10 05:04:35;;;;;;;11.00;7.67;;;;;;;23.20;nan;99953.38;4885494;29;20473;-76
2023/07/10 05:07:03;;;;;;;13.17;10.20;;;;;;;23.27;nan;99959.72;4882204;29;20224;-77
2023/07/10 05:09:31;;;;;;;12.10;9.40;;;;;;;23.33;nan;99976.97;4883873;29;20220;-76
2023/07/10 05:11:58;;;;;;;11.40;9.10;;;;;;;23.36;nan;99973.97;4884222;29;20492;-76
2023/07/10 05:14:24;;;;;;;12.13;8.70;;;;;;;23.36;nan;99982.00;4884605;29;20529;-76
2023/07/10 05:16:50;;;;;;;10.93;8.53;;;;;;;23.34;nan;99982.16;4879755;29;20488;-76
2023/07/10 05:19:15;;;;;;;8.70;7.70;;;;;;;23.35;nan;99991.88;4879942;29;20496;-76
2023/07/10 05:21:41;;;;;;;9.43;8.40;;;;;;;23.36;nan;99984.69;4880185;29;20257;-76
2023/07/10 05:24:06;;;;;;;11.90;8.03;;;;;;;23.34;nan;99976.78;4880610;29;20272;-76
2023/07/10 05:26:32;;;;;;;12.67;8.10;;;;;;;23.36;nan;99984.69;4880575;29;20311;-76
2023/07/10 05:28:57;;;;;;;9.47;8.07;;;;;;;23.37;nan;99989.84;4882297;29;20215;-76
2023/07/10 05:31:23;;;;;;;8.60;7.63;;;;;;;23.39;nan;99978.97;4849157;29;21478;-76
2023/07/10 05:33:49;;;;;;;11.83;8.23;;;;;;;23.41;nan;99977.78;4881319;29;20727;-76
2023/07/10 05:36:16;;;;;;;8.73;7.83;;;;;;;23.46;nan;99979.94;4880496;29;20665;-76
2023/07/10 05:38:48;;;;;;;9.20;8.30;;;;;;;23.49;nan;99982.28;4864436;29;20949;-75
2023/07/10 05:41:14;;;;;;;9.57;8.27;;;;;;;23.54;nan;99982.59;4879455;29;20802;-76
2023/07/10 05:43:40;;;;;;;9.03;7.77;;;;;;;23.64;nan;99975.19;4861847;29;20479;-76
2023/07/10 05:46:05;;;;;;;9.53;8.17;;;;;;;23.77;nan;99976.53;4880595;29;20556;-75
2023/07/10 05:48:31;;;;;;;8.83;7.73;;;;;;;23.83;nan;99971.28;4877760;29;20718;-76
2023/07/10 05:50:57;;;;;;;12.40;8.90;;;;;;;23.86;nan;99970.09;4877868;29;20810;-76
2023/07/10 05:53:23;;;;;;;11.83;8.83;;;;;;;23.92;nan;99966.72;4879376;29;20236;-76
2023/07/10 05:55:51;;;;;;;11.77;8.80;;;;;;;24.31;nan;99963.16;4876595;29;20227;-76
2023/07/10 05:58:18;;;;;;;11.60;8.13;;;;;;;24.94;nan;99964.69;4871340;29;20500;-76
2023/07/10 06:00:47;;;;;;;12.00;9.10;;;;;;;25.66;nan;99968.69;4870724;29;20896;-76
2023/07/10 06:03:12;;;;;;;10.73;8.23;;;;;;;26.35;nan;99975.50;4871270;29;21085;-76
2023/07/10 06:05:38;;;;;;;11.80;8.87;;;;;;;26.96;nan;99970.50;4874360;29;20475;-76
2023/07/10 06:08:04;;;;;;;11.10;7.73;;;;;;;27.50;nan;99967.16;4871166;29;20276;-76
2023/07/10 06:10:29;;;;;;;8.40;7.33;;;;;;;27.94;nan;99968.63;4871252;29;20375;-76
2023/07/10 06:15:41;;;;;;;8.47;7.50;;;;;;;28.82;nan;99962.41;4171438;27;20245;-75
2023/07/10 06:18:06;;;;;;;15.00;6.90;;;;;;;29.12;nan;99962.84;4876770;29;20497;-75
2023/07/10 06:20:31;;;;;;;9.50;6.83;;;;;;;29.47;nan;99967.97;4878048;29;20488;-75
2023/07/10 06:22:57;;;;;;;12.00;7.83;;;;;;;29.74;nan;99966.88;4877968;29;20218;-75
2023/07/10 06:25:22;;;;;;;8.40;6.90;;;;;;;29.87;nan;99959.75;4876457;29;20247;-75
2023/07/10 06:27:48;;;;;;;8.83;7.37;;;;;;;30.06;nan;99960.69;4880084;29;20243;-76
2023/07/10 06:30:13;;;;;;;12.00;8.10;;;;;;;30.21;nan;99961.22;4862834;29;20744;-76
2023/07/10 06:32:40;;;;;;;9.83;7.50;;;;;;;30.20;nan;99963.09;4872676;29;20725;-76
2023/07/10 06:35:05;;;;;;;12.17;8.10;;;;;;;30.30;nan;99973.50;4874722;29;20303;-75
2023/07/10 06:37:31;;;;;;;10.20;7.43;;;;;;;30.39;nan;99965.94;4855002;29;20607;-76
2023/07/10 06:40:09;;;;;;;8.90;6.50;;;;;;;30.73;nan;99980.06;4878624;29;20751;-75
2023/07/10 06:42:35;;;;;;;10.90;6.33;;;;;;;30.95;nan;99972.44;4876141;29;20298;-76
2023/07/10 06:45:01;;;;;;;8.53;6.53;;;;;;;31.08;nan;99970.44;4878002;29;20548;-75
2023/07/10 06:47:26;;;;;;;7.43;6.37;;;;;;;31.23;nan;99977.38;4879270;29;20715;-75
2023/07/10 06:49:52;;;;;;;8.07;6.70;;;;;;;31.39;nan;99970.59;4875970;29;20232;-75
2023/07/10 06:52:17;;;;;;;8.30;5.80;;;;;;;31.47;nan;99968.38;4879756;29;20231;-75
2023/07/10 06:54:42;;;;;;;7.53;6.43;;;;;;;31.56;nan;99978.94;4877924;29;20234;-76
2023/07/10 06:57:08;;;;;;;11.30;7.77;;;;;;;31.65;nan;99966.72;4872189;29;20226;-77
2023/07/10 06:59:33;;;;;;;6.20;5.60;;;;;;;31.72;nan;99976.44;4880801;29;20211;-76
2023/07/10 07:01:58;;;;;;;7.80;6.17;;;;;;;31.89;nan;99971.25;4874881;29;20575;-76
2023/07/10 07:04:24;;;;;;;10.40;5.93;;;;;;;32.03;nan;99974.66;4874798;29;20290;-76
2023/07/10 07:06:50;;;;;;;6.30;5.77;;;;;;;32.19;nan;99975.91;4881002;29;20762;-76
2023/07/10 07:09:15;;;;;;;7.83;5.40;;;;;;;32.36;nan;99987.78;4878467;29;20211;-76
2023/07/10 07:11:41;;;;;;;7.07;6.40;;;;;;;32.39;nan;99984.59;4873234;29;20219;-76
2023/07/10 07:14:07;;;;;;;6.63;5.97;;;;;;;32.31;nan;99978.66;4881178;29;20226;-76
2023/07/10 07:16:32;;;;;;;10.40;5.83;;;;;;;32.20;nan;99980.28;4879713;29;20475;-76
2023/07/10 07:18:57;;;;;;;7.70;5.30;;;;;;;32.17;nan;99984.28;4879207;29;20212;-77
2023/07/10 07:21:23;;;;;;;8.00;5.77;;;;;;;32.15;nan;99980.13;4879453;29;20213;-76
2023/07/10 07:23:48;;;;;;;7.90;5.60;;;;;;;32.16;nan;99977.19;4886245;29;20196;-76
2023/07/10 07:26:13;;;;;;;6.00;4.90;;;;;;;32.26;nan;99981.22;4881849;29;20209;-76
2023/07/10 07:28:39;;;;;;;7.40;5.90;;;;;;;32.48;nan;99978.84;4874652;29;20293;-76
2023/07/10 07:31:05;;;;;;;5.50;4.30;;;;;;;32.53;nan;99978.97;4880244;29;20225;-76
2023/07/10 07:33:31;;;;;;;7.13;5.10;;;;;;;32.61;nan;99978.66;4884794;29;20209;-76
2023/07/10 07:35:59;;;;;;;6.57;5.35;;;;;;;32.65;nan;99971.69;4883463;29;20456;-76
2023/07/10 07:38:24;;;;;;;6.50;5.80;;;;;;;32.69;nan;99978.31;4886440;29;20242;-76
2023/07/10 07:40:50;;;;;;;5.60;4.40;;;;;;;32.77;nan;99979.84;4879603;29;20499;-76
2023/07/10 07:43:15;;;;;;;5.60;5.00;;;;;;;32.96;nan;99969.72;4878530;29;20710;-76
2023/07/10 07:45:53;;;;;;;5.50;4.67;;;;;;;33.16;nan;99969.38;4876013;29;20219;-76
2023/07/10 07:48:18;;;;;;;6.17;4.83;;;;;;;33.32;nan;99973.28;4879716;29;20198;-76
2023/07/10 07:50:53;;;;;;;7.70;5.07;;;;;;;33.41;nan;99977.31;4865258;29;20486;-76
2023/07/10 07:53:18;;;;;;;5.23;4.73;;;;;;;33.34;nan;99973.88;4863236;29;20254;-76
2023/07/10 07:55:44;;;;;;;5.07;4.10;;;;;;;33.20;nan;99968.66;4883359;29;20519;-76
2023/07/10 07:58:09;;;;;;;4.53;3.93;;;;;;;33.33;nan;99964.06;4883804;29;20252;-76
2023/07/10 08:00:35;;;;;;;6.90;5.13;;;;;;;33.46;nan;99964.63;4884249;29;20576;-76
2023/07/10 08:03:00;;;;;;;4.93;4.30;;;;;;;33.32;nan;99974.09;4881847;29;20235;-76
2023/07/10 08:05:26;;;;;;;6.80;5.17;;;;;;;33.05;nan;99979.19;4883147;29;20230;-76
2023/07/10 08:07:51;;;;;;;4.80;3.83;;;;;;;32.88;nan;99972.78;4881841;29;20206;-76
2023/07/10 08:10:17;;;;;;;5.67;4.77;;;;;;;32.73;nan;99976.78;4882435;29;20245;-76
2023/07/10 08:12:42;;;;;;;5.23;4.17;;;;;;;32.82;nan;99975.38;4881188;29;20220;-76
2023/07/10 08:15:08;;;;;;;4.17;3.77;;;;;;;32.90;nan;99968.75;4877154;29;20234;-76
2023/07/10 08:17:33;;;;;;;5.07;4.50;;;;;;;32.95;nan;99968.06;4878270;29;20220;-76
2023/07/10 08:19:59;;;;;;;4.73;4.20;;;;;;;32.85;nan;99963.19;4879226;29;20235;-76
2023/07/10 08:22:24;;;;;;;5.67;4.27;;;;;;;32.74;nan;99969.44;4879014;29;20216;-76
2023/07/10 08:24:49;;;;;;;4.23;3.83;;;;;;;32.72;nan;99980.56;4885887;29;20203;-76
2023/07/10 08:27:15;;;;;;;3.90;3.27;;;;;;;32.70;nan;99979.94;4884931;29;20232;-77
2023/07/10 08:29:40;;;;;;;5.07;4.30;;;;;;;32.66;nan;99976.06;4884026;29;20213;-76
2023/07/10 08:32:06;;;;;;;7.33;4.80;;;;;;;32.56;nan;99973.91;4887081;29;20211;-76
2023/07/10 08:34:32;;;;;;;5.03;4.10;;;;;;;32.41;nan;99976.22;4882602;29;20220;-76
2023/07/10 08:36:59;;;;;;;3.77;3.10;;;;;;;32.15;nan;99971.97;4884806;29;20581;-76
2023/07/10 08:39:25;;;;;;;5.13;3.47;;;;;;;31.88;nan;99974.19;4885956;29;20280;-76
2023/07/10 08:41:59;;;;;;;4.80;3.60;;;;;;;31.89;nan;99973.97;4884504;29;20468;-75
2023/07/10 08:44:34;;;;;;;6.13;3.67;;;;;;;32.04;nan;99972.75;4884144;29;20460;-76
2023/07/10 08:47:08;;;;;;;6.93;3.80;;;;;;;32.22;nan;99967.28;4885161;29;20519;-76
2023/07/10 08:49:41;;;;;;;4.23;3.13;;;;;;;32.39;nan;99975.59;4863949;29;20468;-76
2023/07/10 08:52:11;;;;;;;3.43;3.17;;;;;;;32.47;nan;99966.31;4879905;29;20482;-76
2023/07/10 08:54:37;;;;;;;5.00;4.20;;;;;;;32.55;nan;99974.16;4879490;29;20887;-76
2023/07/10 08:57:31;;;;;;;4.27;3.87;;;;;;;32.56;nan;99973.91;4884235;29;20491;-76
2023/07/10 09:00:10;;;;;;;4.10;3.00;;;;;;;32.55;nan;99968.72;4880617;29;20507;-76
2023/07/10 09:02:43;;;;;;;3.40;3.00;;;;;;;32.62;nan;99969.41;4879095;29;20525;-77
2023/07/10 09:05:24;;;;;;;6.80;3.10;;;;;;;32.72;nan;99969.66;4879928;29;20459;-76
2023/07/10 09:07:50;;;;;;;4.90;3.33;;;;;;;32.88;nan;99965.44;4882538;29;20467;-76
2023/07/10 09:10:43;;;;;;;3.70;3.40;;;;;;;32.98;nan;99965.69;4863305;29;20499;-76
2023/07/10 09:13:14;;;;;;;4.43;4.03;;;;;;;33.04;nan;99962.03;4878526;29;20834;-76
2023/07/10 09:15:54;;;;;;;5.40;4.90;;;;;;;32.98;nan;99956.69;4882495;29;20483;-76
2023/07/10 09:18:25;;;;;;;4.40;4.00;;;;;;;32.90;nan;99959.78;4879615;29;20507;-76
2023/07/10 09:20:56;;;;;;;5.13;4.63;;;;;;;32.80;nan;99961.16;4882245;29;21248;-76
2023/07/10 09:23:25;;;;;;;3.33;3.03;;;;;;;32.88;nan;99967.34;4884867;29;20999;-76
2023/07/10 09:25:56;;;;;;;3.90;3.60;;;;;;;33.05;nan;99960.13;4864765;29;20458;-76
2023/07/10 09:28:25;;;;;;;4.20;3.40;;;;;;;33.15;nan;99965.81;4881081;29;20474;-76
2023/07/10 09:31:05;;;;;;;4.50;4.03;;;;;;;33.33;nan;99964.88;4882101;29;20461;-76
2023/07/10 09:33:50;;;;;;;5.13;3.50;;;;;;;33.54;nan;99960.75;4859997;29;20501;-76
2023/07/10 09:36:19;;;;;;;5.47;4.00;;;;;;;33.52;nan;99962.00;4879234;29;20461;-76
2023/07/10 09:38:47;;;;;;;4.30;3.77;;;;;;;33.59;nan;99958.09;4879932;29;20508;-76
2023/07/10 09:41:24;;;;;;;4.97;3.77;;;;;;;33.66;nan;99953.34;4878590;29;20487;-76
2023/07/10 09:43:54;;;;;;;3.67;3.33;;;;;;;33.68;nan;99958.56;4879031;29;20477;-76
2023/07/10 09:46:26;;;;;;;4.03;3.73;;;;;;;33.72;nan;99952.38;4880666;29;20683;-77
2023/07/10 09:48:53;;;;;;;4.57;3.43;;;;;;;33.94;nan;99957.16;4872213;29;20483;-76
2023/07/10 09:51:19;;;;;;;6.50;4.73;;;;;;;33.99;nan;99954.53;4875754;29;20494;-76
2023/07/10 09:53:51;;;;;;;4.53;3.67;;;;;;;33.84;nan;99948.81;4877043;29;20555;-76
2023/07/10 09:56:24;;;;;;;4.27;3.87;;;;;;;33.74;nan;99954.88;4872262;29;20924;-76
2023/07/10 09:58:54;;;;;;;5.83;4.00;;;;;;;33.59;nan;99960.00;4875152;29;21085;-76
2023/07/10 10:01:30;;;;;;;4.80;4.17;;;;;;;33.57;nan;99954.81;4874100;29;20473;-77
2023/07/10 10:03:56;;;;;;;4.60;4.20;;;;;;;33.70;nan;99953.69;4876059;29;20473;-76
2023/07/10 10:06:27;;;;;;;7.43;4.40;;;;;;;33.81;nan;99952.84;4876157;29;20487;-77
2023/07/10 10:08:54;;;;;;;5.07;4.57;;;;;;;33.96;nan;99948.75;4877425;29;20204;-76
2023/07/10 10:11:41;;;;;;;4.17;3.77;;;;;;;34.25;nan;99944.97;4876758;29;20481;-76
2023/07/10 10:14:14;;;;;;;6.20;4.50;;;;;;;34.32;nan;99937.47;4875463;29;20547;-77
2023/07/10 10:16:43;;;;;;;4.20;3.80;;;;;;;34.42;nan;99945.00;4876003;29;20508;-76
2023/07/10 10:19:24;;;;;;;6.40;4.17;;;;;;;34.45;nan;99944.50;4875746;29;20853;-76
2023/07/10 10:21:50;;;;;;;4.63;4.23;;;;;;;34.52;nan;99939.72;4876513;29;20926;-77
2023/07/10 10:24:16;;;;;;;6.73;4.27;;;;;;;34.52;nan;99942.44;4877039;29;21156;-76
2023/07/10 10:26:50;;;;;;;5.30;4.23;;;;;;;34.43;nan;99941.22;4879443;29;20918;-76
2023/07/10 10:29:30;;;;;;;4.80;4.40;;;;;;;34.45;nan;99932.75;4877855;29;20489;-76
2023/07/10 10:32:08;;;;;;;5.53;4.67;;;;;;;34.55;nan;99939.22;4868026;29;20489;-77
2023/07/10 10:34:40;;;;;;;5.27;3.80;;;;;;;34.51;nan;99942.69;4875376;29;20492;-76
2023/07/10 10:37:16;;;;;;;5.47;4.13;;;;;;;34.51;nan;99942.69;4877767;29;20537;-76
2023/07/10 10:40:09;;;;;;;4.73;4.27;;;;;;;34.56;nan;99937.31;4877513;29;20821;-77
2023/07/10 10:42:50;;;;;;;6.57;5.03;;;;;;;34.42;nan;99931.34;4876756;29;20473;-76
2023/07/10 10:45:25;;;;;;;5.27;4.77;;;;;;;34.38;nan;99930.22;4875515;29;20873;-76
2023/07/10 10:48:01;;;;;;;5.43;4.83;;;;;;;34.28;nan;99927.31;4870924;29;20895;-76
2023/07/10 10:50:27;;;;;;;4.47;4.17;;;;;;;34.31;nan;99922.19;4871644;29;20515;-77
2023/07/10 10:53:19;;;;;;;5.50;4.57;;;;;;;34.47;nan;99928.72;4873594;29;21519;-77
2023/07/10 10:56:32;;;;;;;5.53;4.57;;;;;;;34.66;nan;99934.78;4872883;29;20288;-77
2023/07/10 10:59:31;;;;;;;7.37;4.70;;;;;;;34.69;nan;99930.75;4830028;29;20507;-77
2023/07/10 11:02:27;;;;;;;6.50;4.73;;;;;;;34.67;nan;99927.44;4834315;29;21006;-76
2023/07/10 11:05:19;;;;;;;6.97;5.63;;;;;;;34.70;nan;99921.47;4868324;29;20481;-76
2023/07/10 11:07:48;;;;;;;7.83;4.40;;;;;;;34.60;nan;99916.69;4873784;29;20546;-76
2023/07/10 11:10:23;;;;;;;8.63;4.97;;;;;;;34.61;nan;99917.50;4873378;29;20487;-76
2023/07/10 11:12:48;;;;;;;7.47;6.87;;;;;;;34.65;nan;99919.50;4872761;29;20477;-76
2023/07/10 11:15:17;;;;;;;6.47;4.90;;;;;;;34.64;nan;99919.75;4871937;29;21150;-76
2023/07/10 11:17:46;;;;;;;5.20;4.70;;;;;;;34.68;nan;99920.91;4872781;29;20209;-76
2023/07/10 11:20:15;;;;;;;4.87;4.43;;;;;;;34.72;nan;99913.88;4858734;29;20467;-76
2023/07/10 11:22:50;;;;;;;4.70;4.23;;;;;;;34.85;nan;99897.16;4871450;29;21877;-76
2023/07/10 11:25:32;;;;;;;6.23;5.63;;;;;;;34.96;nan;99904.41;4857132;29;20458;-75
2023/07/10 11:28:17;;;;;;;7.07;5.27;;;;;;;35.03;nan;99901.50;4875278;29;20971;-76
2023/07/10 11:30:42;;;;;;;5.50;4.40;;;;;;;35.02;nan;99891.66;4875768;29;20853;-76
2023/07/10 11:33:21;;;;;;;5.70;5.13;;;;;;;35.05;nan;99884.88;4877253;29;20478;-76
2023/07/10 11:36:14;;;;;;;5.87;4.40;;;;;;;35.05;nan;99876.66;4872681;29;20315;-76
2023/07/10 11:39:05;;;;;;;6.10;4.27;;;;;;;34.90;nan;99877.31;4875599;29;21750;-76
2023/07/10 11:41:32;;;;;;;4.77;4.37;;;;;;;34.77;nan;99878.47;4879693;29;20468;-76
2023/07/10 11:44:29;;;;;;;4.83;4.43;;;;;;;34.62;nan;99867.31;4877263;29;20462;-77
2023/07/10 11:46:54;;;;;;;6.50;4.10;;;;;;;34.52;nan;99874.25;4873390;29;20481;-76
2023/07/10 11:49:20;;;;;;;5.97;4.60;;;;;;;34.62;nan;99864.59;4877341;29;20456;-76
2023/07/10 11:52:11;;;;;;;5.10;4.60;;;;;;;34.78;nan;99866.47;4882491;29;20417;-77
2023/07/10 11:54:43;;;;;;;4.33;3.90;;;;;;;34.88;nan;99863.88;4869319;29;20488;-77
2023/07/10 11:57:08;;;;;;;4.60;4.20;;;;;;;34.95;nan;99861.81;4878065;29;20480;-76
2023/07/10 11:59:45;;;;;;;4.33;3.73;;;;;;;35.07;nan;99858.16;4880061;29;20473;-76
2023/07/10 12:02:26;;;;;;;6.40;4.90;;;;;;;35.05;nan;99857.56;4883131;29;20234;-77